臺中航空站 - ATIS

METAR RCMQ 161400Z 01010KT 9999 FEW010 BKN050 19/14 Q1020 NOSIG RMK A3012=

站台狀態:Online
最後更新:2018-12-16 23:00:02